sensor_id;sensor_type;location;lat;lon;timestamp;P1;durP1;ratioP1;P2;durP2;ratioP2
81378;SDS011;70830;42.290;-71.354;2024-02-04T00:01:25;2.03;;;1.77;;
81378;SDS011;70830;42.290;-71.354;2024-02-04T00:03:51;4.45;;;3.38;;
81378;SDS011;70830;42.290;-71.354;2024-02-04T00:06:17;9.85;;;2.20;;
81378;SDS011;70830;42.290;-71.354;2024-02-04T00:08:43;2.97;;;2.67;;
81378;SDS011;70830;42.290;-71.354;2024-02-04T00:11:09;4.95;;;2.40;;
81378;SDS011;70830;42.290;-71.354;2024-02-04T00:13:37;2.15;;;1.92;;
81378;SDS011;70830;42.290;-71.354;2024-02-04T00:16:04;3.15;;;1.73;;
81378;SDS011;70830;42.290;-71.354;2024-02-04T00:18:30;2.85;;;1.80;;
81378;SDS011;70830;42.290;-71.354;2024-02-04T00:20:57;3.22;;;2.40;;
81378;SDS011;70830;42.290;-71.354;2024-02-04T00:23:23;4.18;;;3.30;;
81378;SDS011;70830;42.290;-71.354;2024-02-04T00:25:49;2.90;;;1.33;;
81378;SDS011;70830;42.290;-71.354;2024-02-04T00:28:15;2.72;;;1.08;;
81378;SDS011;70830;42.290;-71.354;2024-02-04T00:30:41;6.40;;;1.80;;
81378;SDS011;70830;42.290;-71.354;2024-02-04T00:33:07;3.05;;;2.47;;
81378;SDS011;70830;42.290;-71.354;2024-02-04T00:35:32;2.83;;;1.98;;
81378;SDS011;70830;42.290;-71.354;2024-02-04T00:37:58;4.25;;;1.85;;
81378;SDS011;70830;42.290;-71.354;2024-02-04T00:40:24;2.33;;;1.27;;
81378;SDS011;70830;42.290;-71.354;2024-02-04T00:42:51;6.88;;;4.10;;
81378;SDS011;70830;42.290;-71.354;2024-02-04T00:45:17;5.78;;;5.28;;
81378;SDS011;70830;42.290;-71.354;2024-02-04T00:47:43;4.90;;;2.67;;
81378;SDS011;70830;42.290;-71.354;2024-02-04T00:50:09;10.00;;;3.92;;
81378;SDS011;70830;42.290;-71.354;2024-02-04T00:52:35;7.50;;;5.32;;
81378;SDS011;70830;42.290;-71.354;2024-02-04T00:55:01;5.47;;;2.30;;
81378;SDS011;70830;42.290;-71.354;2024-02-04T00:57:27;8.60;;;4.30;;
81378;SDS011;70830;42.290;-71.354;2024-02-04T00:59:53;2.45;;;1.33;;
81378;SDS011;70830;42.290;-71.354;2024-02-04T01:02:19;5.18;;;4.72;;
81378;SDS011;70830;42.290;-71.354;2024-02-04T01:04:45;4.00;;;2.03;;
81378;SDS011;70830;42.290;-71.354;2024-02-04T01:07:10;3.95;;;1.00;;
81378;SDS011;70830;42.290;-71.354;2024-02-04T01:09:36;10.80;;;3.35;;
81378;SDS011;70830;42.290;-71.354;2024-02-04T01:12:03;4.72;;;2.15;;
81378;SDS011;70830;42.290;-71.354;2024-02-04T01:14:29;2.22;;;1.00;;
81378;SDS011;70830;42.290;-71.354;2024-02-04T01:16:55;1.92;;;0.90;;
81378;SDS011;70830;42.290;-71.354;2024-02-04T01:19:20;2.22;;;1.20;;
81378;SDS011;70830;42.290;-71.354;2024-02-04T01:21:46;2.70;;;1.10;;
81378;SDS011;70830;42.290;-71.354;2024-02-04T01:24:12;2.92;;;1.23;;
81378;SDS011;70830;42.290;-71.354;2024-02-04T01:26:38;3.67;;;1.67;;
81378;SDS011;70830;42.290;-71.354;2024-02-04T01:29:04;7.75;;;2.30;;
81378;SDS011;70830;42.290;-71.354;2024-02-04T01:31:31;5.10;;;1.92;;
81378;SDS011;70830;42.290;-71.354;2024-02-04T01:33:58;2.70;;;1.70;;
81378;SDS011;70830;42.290;-71.354;2024-02-04T01:36:23;2.97;;;1.73;;
81378;SDS011;70830;42.290;-71.354;2024-02-04T01:38:51;3.67;;;1.80;;
81378;SDS011;70830;42.290;-71.354;2024-02-04T01:41:17;3.70;;;2.03;;
81378;SDS011;70830;42.290;-71.354;2024-02-04T01:43:43;4.50;;;3.08;;
81378;SDS011;70830;42.290;-71.354;2024-02-04T01:46:09;4.22;;;2.47;;
81378;SDS011;70830;42.290;-71.354;2024-02-04T01:48:35;3.10;;;2.70;;
81378;SDS011;70830;42.290;-71.354;2024-02-04T01:51:02;3.50;;;2.67;;
81378;SDS011;70830;42.290;-71.354;2024-02-04T01:53:30;5.95;;;2.78;;
81378;SDS011;70830;42.290;-71.354;2024-02-04T01:55:59;4.18;;;3.28;;
81378;SDS011;70830;42.290;-71.354;2024-02-04T01:58:25;9.70;;;5.13;;
81378;SDS011;70830;42.290;-71.354;2024-02-04T02:00:51;5.07;;;4.68;;
81378;SDS011;70830;42.290;-71.354;2024-02-04T02:03:18;5.00;;;4.10;;
81378;SDS011;70830;42.290;-71.354;2024-02-04T02:05:46;5.82;;;4.82;;
81378;SDS011;70830;42.290;-71.354;2024-02-04T02:08:12;5.72;;;5.22;;
81378;SDS011;70830;42.290;-71.354;2024-02-04T02:10:38;3.17;;;2.40;;
81378;SDS011;70830;42.290;-71.354;2024-02-04T02:13:11;6.05;;;4.00;;
81378;SDS011;70830;42.290;-71.354;2024-02-04T02:15:48;2.25;;;2.05;;
81378;SDS011;70830;42.290;-71.354;2024-02-04T02:23:34;4.43;;;4.00;;
81378;SDS011;70830;42.290;-71.354;2024-02-04T02:26:02;2.88;;;1.13;;
81378;SDS011;70830;42.290;-71.354;2024-02-04T02:28:31;2.03;;;0.93;;
81378;SDS011;70830;42.290;-71.354;2024-02-04T02:30:58;1.63;;;0.70;;
81378;SDS011;70830;42.290;-71.354;2024-02-04T02:33:24;4.03;;;3.83;;
81378;SDS011;70830;42.290;-71.354;2024-02-04T02:35:51;7.65;;;1.63;;
81378;SDS011;70830;42.290;-71.354;2024-02-04T02:38:33;6.07;;;1.13;;
81378;SDS011;70830;42.290;-71.354;2024-02-04T02:41:21;5.07;;;3.00;;
81378;SDS011;70830;42.290;-71.354;2024-02-04T02:43:48;3.28;;;1.20;;
81378;SDS011;70830;42.290;-71.354;2024-02-04T02:46:18;6.85;;;3.88;;
81378;SDS011;70830;42.290;-71.354;2024-02-04T02:48:45;4.60;;;4.20;;
81378;SDS011;70830;42.290;-71.354;2024-02-04T02:51:12;8.10;;;1.02;;
81378;SDS011;70830;42.290;-71.354;2024-02-04T02:53:37;4.60;;;0.90;;
81378;SDS011;70830;42.290;-71.354;2024-02-04T02:56:03;6.53;;;4.32;;
81378;SDS011;70830;42.290;-71.354;2024-02-04T02:58:30;3.30;;;2.90;;
81378;SDS011;70830;42.290;-71.354;2024-02-04T03:00:57;2.63;;;1.65;;
81378;SDS011;70830;42.290;-71.354;2024-02-04T03:03:23;4.57;;;2.60;;
81378;SDS011;70830;42.290;-71.354;2024-02-04T03:05:49;2.72;;;2.05;;
81378;SDS011;70830;42.290;-71.354;2024-02-04T03:08:15;1.98;;;1.30;;
81378;SDS011;70830;42.290;-71.354;2024-02-04T03:10:42;2.30;;;2.10;;
81378;SDS011;70830;42.290;-71.354;2024-02-04T03:13:07;2.60;;;1.50;;
81378;SDS011;70830;42.290;-71.354;2024-02-04T03:15:34;1.65;;;0.80;;
81378;SDS011;70830;42.290;-71.354;2024-02-04T03:18:00;3.38;;;1.60;;
81378;SDS011;70830;42.290;-71.354;2024-02-04T03:20:26;5.05;;;4.30;;
81378;SDS011;70830;42.290;-71.354;2024-02-04T03:22:51;3.45;;;2.50;;
81378;SDS011;70830;42.290;-71.354;2024-02-04T03:25:17;3.90;;;2.20;;
81378;SDS011;70830;42.290;-71.354;2024-02-04T03:27:43;3.75;;;3.50;;
81378;SDS011;70830;42.290;-71.354;2024-02-04T03:30:09;4.43;;;4.03;;
81378;SDS011;70830;42.290;-71.354;2024-02-04T03:32:35;1.65;;;1.30;;
81378;SDS011;70830;42.290;-71.354;2024-02-04T03:35:01;3.85;;;3.58;;
81378;SDS011;70830;42.290;-71.354;2024-02-04T03:37:28;8.43;;;3.70;;
81378;SDS011;70830;42.290;-71.354;2024-02-04T03:39:54;3.58;;;3.28;;
81378;SDS011;70830;42.290;-71.354;2024-02-04T03:42:19;4.82;;;4.53;;
81378;SDS011;70830;42.290;-71.354;2024-02-04T03:44:47;2.20;;;0.80;;
81378;SDS011;70830;42.290;-71.354;2024-02-04T03:47:13;2.00;;;0.80;;
81378;SDS011;70830;42.290;-71.354;2024-02-04T03:49:39;3.75;;;2.28;;
81378;SDS011;70830;42.290;-71.354;2024-02-04T03:52:06;1.73;;;0.90;;
81378;SDS011;70830;42.290;-71.354;2024-02-04T03:54:32;4.00;;;3.70;;
81378;SDS011;70830;42.290;-71.354;2024-02-04T03:56:58;2.38;;;1.35;;
81378;SDS011;70830;42.290;-71.354;2024-02-04T03:59:24;4.65;;;4.35;;
81378;SDS011;70830;42.290;-71.354;2024-02-04T04:01:50;5.00;;;4.60;;
81378;SDS011;70830;42.290;-71.354;2024-02-04T04:04:18;4.03;;;2.38;;
81378;SDS011;70830;42.290;-71.354;2024-02-04T04:06:44;4.38;;;4.00;;
81378;SDS011;70830;42.290;-71.354;2024-02-04T04:09:11;1.55;;;0.70;;
81378;SDS011;70830;42.290;-71.354;2024-02-04T04:11:37;1.77;;;0.80;;
81378;SDS011;70830;42.290;-71.354;2024-02-04T04:14:03;3.97;;;0.68;;
81378;SDS011;70830;42.290;-71.354;2024-02-04T04:16:30;2.17;;;0.80;;
81378;SDS011;70830;42.290;-71.354;2024-02-04T04:18:56;2.92;;;1.17;;
81378;SDS011;70830;42.290;-71.354;2024-02-04T04:21:23;4.93;;;3.83;;
81378;SDS011;70830;42.290;-71.354;2024-02-04T04:23:49;4.95;;;4.53;;
81378;SDS011;70830;42.290;-71.354;2024-02-04T04:26:15;4.38;;;1.25;;
81378;SDS011;70830;42.290;-71.354;2024-02-04T04:28:41;3.13;;;1.25;;
81378;SDS011;70830;42.290;-71.354;2024-02-04T04:31:07;5.00;;;4.60;;
81378;SDS011;70830;42.290;-71.354;2024-02-04T04:33:33;5.88;;;4.30;;
81378;SDS011;70830;42.290;-71.354;2024-02-04T04:36:00;3.67;;;1.85;;
81378;SDS011;70830;42.290;-71.354;2024-02-04T04:38:26;1.55;;;1.27;;
81378;SDS011;70830;42.290;-71.354;2024-02-04T04:40:52;3.60;;;2.95;;
81378;SDS011;70830;42.290;-71.354;2024-02-04T04:43:18;4.05;;;1.10;;
81378;SDS011;70830;42.290;-71.354;2024-02-04T04:45:44;5.03;;;0.90;;
81378;SDS011;70830;42.290;-71.354;2024-02-04T04:48:10;5.07;;;4.63;;
81378;SDS011;70830;42.290;-71.354;2024-02-04T04:50:36;4.40;;;4.10;;
81378;SDS011;70830;42.290;-71.354;2024-02-04T04:53:02;2.88;;;2.50;;
81378;SDS011;70830;42.290;-71.354;2024-02-04T04:55:28;5.13;;;4.70;;
81378;SDS011;70830;42.290;-71.354;2024-02-04T04:57:54;3.63;;;1.52;;
81378;SDS011;70830;42.290;-71.354;2024-02-04T05:00:20;2.25;;;1.02;;
81378;SDS011;70830;42.290;-71.354;2024-02-04T05:02:46;2.30;;;0.80;;
81378;SDS011;70830;42.290;-71.354;2024-02-04T05:05:13;5.57;;;1.17;;
81378;SDS011;70830;42.290;-71.354;2024-02-04T05:07:39;3.75;;;3.45;;
81378;SDS011;70830;42.290;-71.354;2024-02-04T05:10:06;2.33;;;1.95;;
81378;SDS011;70830;42.290;-71.354;2024-02-04T05:12:32;3.53;;;1.10;;
81378;SDS011;70830;42.290;-71.354;2024-02-04T05:14:59;6.63;;;4.70;;
81378;SDS011;70830;42.290;-71.354;2024-02-04T05:17:25;3.55;;;1.73;;
81378;SDS011;70830;42.290;-71.354;2024-02-04T05:19:52;5.95;;;5.45;;
81378;SDS011;70830;42.290;-71.354;2024-02-04T05:22:18;4.25;;;3.85;;
81378;SDS011;70830;42.290;-71.354;2024-02-04T05:24:43;4.55;;;2.15;;
81378;SDS011;70830;42.290;-71.354;2024-02-04T05:27:09;4.57;;;1.17;;
81378;SDS011;70830;42.290;-71.354;2024-02-04T05:29:36;2.50;;;0.95;;
81378;SDS011;70830;42.290;-71.354;2024-02-04T05:32:03;3.17;;;2.13;;
81378;SDS011;70830;42.290;-71.354;2024-02-04T05:34:29;4.93;;;4.47;;
81378;SDS011;70830;42.290;-71.354;2024-02-04T05:36:56;4.85;;;4.20;;
81378;SDS011;70830;42.290;-71.354;2024-02-04T05:39:22;3.63;;;1.00;;
81378;SDS011;70830;42.290;-71.354;2024-02-04T05:41:49;2.88;;;1.27;;
81378;SDS011;70830;42.290;-71.354;2024-02-04T05:44:15;2.85;;;1.20;;
81378;SDS011;70830;42.290;-71.354;2024-02-04T05:46:41;3.03;;;1.50;;
81378;SDS011;70830;42.290;-71.354;2024-02-04T05:49:07;3.35;;;2.40;;
81378;SDS011;70830;42.290;-71.354;2024-02-04T05:51:36;4.50;;;3.88;;
81378;SDS011;70830;42.290;-71.354;2024-02-04T05:54:04;6.93;;;3.45;;
81378;SDS011;70830;42.290;-71.354;2024-02-04T05:56:30;5.90;;;3.45;;
81378;SDS011;70830;42.290;-71.354;2024-02-04T05:58:56;4.60;;;4.20;;
81378;SDS011;70830;42.290;-71.354;2024-02-04T06:01:22;5.10;;;4.40;;
81378;SDS011;70830;42.290;-71.354;2024-02-04T06:03:48;3.65;;;1.83;;
81378;SDS011;70830;42.290;-71.354;2024-02-04T06:06:17;2.58;;;1.13;;
81378;SDS011;70830;42.290;-71.354;2024-02-04T06:08:48;4.97;;;4.60;;
81378;SDS011;70830;42.290;-71.354;2024-02-04T06:11:14;4.13;;;2.85;;
81378;SDS011;70830;42.290;-71.354;2024-02-04T06:13:40;4.07;;;1.30;;
81378;SDS011;70830;42.290;-71.354;2024-02-04T06:16:07;5.20;;;4.70;;
81378;SDS011;70830;42.290;-71.354;2024-02-04T06:18:35;3.80;;;1.30;;
81378;SDS011;70830;42.290;-71.354;2024-02-04T06:21:04;3.90;;;3.00;;
81378;SDS011;70830;42.290;-71.354;2024-02-04T06:23:30;4.63;;;4.15;;
81378;SDS011;70830;42.290;-71.354;2024-02-04T06:25:57;6.43;;;4.15;;
81378;SDS011;70830;42.290;-71.354;2024-02-04T06:28:23;5.20;;;4.10;;
81378;SDS011;70830;42.290;-71.354;2024-02-04T06:30:49;5.88;;;3.35;;
81378;SDS011;70830;42.290;-71.354;2024-02-04T06:33:15;5.78;;;5.25;;
81378;SDS011;70830;42.290;-71.354;2024-02-04T06:35:41;4.25;;;3.85;;
81378;SDS011;70830;42.290;-71.354;2024-02-04T06:38:08;6.30;;;5.78;;
81378;SDS011;70830;42.290;-71.354;2024-02-04T06:40:34;5.45;;;2.35;;
81378;SDS011;70830;42.290;-71.354;2024-02-04T06:42:59;1.65;;;1.02;;
81378;SDS011;70830;42.290;-71.354;2024-02-04T06:45:25;2.83;;;1.60;;
81378;SDS011;70830;42.290;-71.354;2024-02-04T06:47:51;5.45;;;2.05;;
81378;SDS011;70830;42.290;-71.354;2024-02-04T06:50:17;4.18;;;1.95;;
81378;SDS011;70830;42.290;-71.354;2024-02-04T06:52:43;6.35;;;2.20;;
81378;SDS011;70830;42.290;-71.354;2024-02-04T06:55:10;3.15;;;1.40;;
81378;SDS011;70830;42.290;-71.354;2024-02-04T06:57:36;4.22;;;1.08;;
81378;SDS011;70830;42.290;-71.354;2024-02-04T07:00:02;5.10;;;1.75;;
81378;SDS011;70830;42.290;-71.354;2024-02-04T07:02:33;2.45;;;1.20;;
81378;SDS011;70830;42.290;-71.354;2024-02-04T07:05:00;2.22;;;1.05;;
81378;SDS011;70830;42.290;-71.354;2024-02-04T07:07:26;3.55;;;1.60;;
81378;SDS011;70830;42.290;-71.354;2024-02-04T07:09:52;2.50;;;1.85;;
81378;SDS011;70830;42.290;-71.354;2024-02-04T07:12:17;5.30;;;3.30;;
81378;SDS011;70830;42.290;-71.354;2024-02-04T07:14:44;4.18;;;1.52;;
81378;SDS011;70830;42.290;-71.354;2024-02-04T07:17:10;8.35;;;1.75;;
81378;SDS011;70830;42.290;-71.354;2024-02-04T07:19:38;10.73;;;1.23;;
81378;SDS011;70830;42.290;-71.354;2024-02-04T07:22:04;2.75;;;1.25;;
81378;SDS011;70830;42.290;-71.354;2024-02-04T07:24:30;4.90;;;2.88;;
81378;SDS011;70830;42.290;-71.354;2024-02-04T07:26:56;5.43;;;4.80;;
81378;SDS011;70830;42.290;-71.354;2024-02-04T07:29:23;8.73;;;2.00;;
81378;SDS011;70830;42.290;-71.354;2024-02-04T07:31:49;2.38;;;2.08;;
81378;SDS011;70830;42.290;-71.354;2024-02-04T07:34:15;5.38;;;4.22;;
81378;SDS011;70830;42.290;-71.354;2024-02-04T07:36:41;4.40;;;4.00;;
81378;SDS011;70830;42.290;-71.354;2024-02-04T07:39:07;3.90;;;3.60;;
81378;SDS011;70830;42.290;-71.354;2024-02-04T07:41:32;4.47;;;3.90;;
81378;SDS011;70830;42.290;-71.354;2024-02-04T07:43:58;3.72;;;3.38;;
81378;SDS011;70830;42.290;-71.354;2024-02-04T07:46:24;4.45;;;3.85;;
81378;SDS011;70830;42.290;-71.354;2024-02-04T07:48:50;7.32;;;4.10;;
81378;SDS011;70830;42.290;-71.354;2024-02-04T07:51:16;3.90;;;3.40;;
81378;SDS011;70830;42.290;-71.354;2024-02-04T07:53:43;5.03;;;4.18;;
81378;SDS011;70830;42.290;-71.354;2024-02-04T07:56:09;5.13;;;3.85;;
81378;SDS011;70830;42.290;-71.354;2024-02-04T07:58:36;5.18;;;3.80;;
81378;SDS011;70830;42.290;-71.354;2024-02-04T08:01:02;9.00;;;3.50;;
81378;SDS011;70830;42.290;-71.354;2024-02-04T08:03:28;6.45;;;4.00;;
81378;SDS011;70830;42.290;-71.354;2024-02-04T08:05:54;4.85;;;4.45;;
81378;SDS011;70830;42.290;-71.354;2024-02-04T08:08:20;4.30;;;4.00;;
81378;SDS011;70830;42.290;-71.354;2024-02-04T08:10:46;4.85;;;4.45;;
81378;SDS011;70830;42.290;-71.354;2024-02-04T08:13:12;5.78;;;5.28;;
81378;SDS011;70830;42.290;-71.354;2024-02-04T08:15:38;4.82;;;4.40;;
81378;SDS011;70830;42.290;-71.354;2024-02-04T08:18:04;5.50;;;5.10;;
81378;SDS011;70830;42.290;-71.354;2024-02-04T08:20:31;4.10;;;3.35;;
81378;SDS011;70830;42.290;-71.354;2024-02-04T08:22:56;3.75;;;1.88;;
81378;SDS011;70830;42.290;-71.354;2024-02-04T08:25:22;3.72;;;1.55;;
81378;SDS011;70830;42.290;-71.354;2024-02-04T08:27:48;3.10;;;1.27;;
81378;SDS011;70830;42.290;-71.354;2024-02-04T08:30:14;6.13;;;1.25;;
81378;SDS011;70830;42.290;-71.354;2024-02-04T08:32:41;5.13;;;1.55;;
81378;SDS011;70830;42.290;-71.354;2024-02-04T08:35:07;4.38;;;1.70;;
81378;SDS011;70830;42.290;-71.354;2024-02-04T08:37:33;4.05;;;1.85;;
81378;SDS011;70830;42.290;-71.354;2024-02-04T08:40:00;2.53;;;1.38;;
81378;SDS011;70830;42.290;-71.354;2024-02-04T08:42:27;3.15;;;1.42;;
81378;SDS011;70830;42.290;-71.354;2024-02-04T08:44:53;5.13;;;2.00;;
81378;SDS011;70830;42.290;-71.354;2024-02-04T08:47:19;3.97;;;2.45;;
81378;SDS011;70830;42.290;-71.354;2024-02-04T08:49:45;3.88;;;1.73;;
81378;SDS011;70830;42.290;-71.354;2024-02-04T08:52:11;5.25;;;1.95;;
81378;SDS011;70830;42.290;-71.354;2024-02-04T08:54:37;3.72;;;1.67;;
81378;SDS011;70830;42.290;-71.354;2024-02-04T08:57:02;3.55;;;1.55;;
81378;SDS011;70830;42.290;-71.354;2024-02-04T08:59:29;1.88;;;1.20;;
81378;SDS011;70830;42.290;-71.354;2024-02-04T09:01:55;2.92;;;1.25;;
81378;SDS011;70830;42.290;-71.354;2024-02-04T09:04:21;4.18;;;1.90;;
81378;SDS011;70830;42.290;-71.354;2024-02-04T09:06:47;4.50;;;2.80;;
81378;SDS011;70830;42.290;-71.354;2024-02-04T09:09:14;3.38;;;1.85;;
81378;SDS011;70830;42.290;-71.354;2024-02-04T09:11:40;3.10;;;1.65;;
81378;SDS011;70830;42.290;-71.354;2024-02-04T09:14:06;2.15;;;1.60;;
81378;SDS011;70830;42.290;-71.354;2024-02-04T09:16:33;2.33;;;1.33;;
81378;SDS011;70830;42.290;-71.354;2024-02-04T09:18:58;4.80;;;1.40;;
81378;SDS011;70830;42.290;-71.354;2024-02-04T09:21:26;3.47;;;1.80;;
81378;SDS011;70830;42.290;-71.354;2024-02-04T09:23:52;6.50;;;1.80;;
81378;SDS011;70830;42.290;-71.354;2024-02-04T09:26:18;7.13;;;2.58;;
81378;SDS011;70830;42.290;-71.354;2024-02-04T09:28:44;4.07;;;1.67;;
81378;SDS011;70830;42.290;-71.354;2024-02-04T09:31:10;4.78;;;2.78;;
81378;SDS011;70830;42.290;-71.354;2024-02-04T09:33:36;3.47;;;2.28;;
81378;SDS011;70830;42.290;-71.354;2024-02-04T09:36:03;3.55;;;2.42;;
81378;SDS011;70830;42.290;-71.354;2024-02-04T09:38:29;6.90;;;2.25;;
81378;SDS011;70830;42.290;-71.354;2024-02-04T09:40:55;4.10;;;2.60;;
81378;SDS011;70830;42.290;-71.354;2024-02-04T09:43:21;3.38;;;2.65;;
81378;SDS011;70830;42.290;-71.354;2024-02-04T09:45:47;3.45;;;2.45;;
81378;SDS011;70830;42.290;-71.354;2024-02-04T09:48:15;3.08;;;2.60;;
81378;SDS011;70830;42.290;-71.354;2024-02-04T09:50:45;4.68;;;2.65;;
81378;SDS011;70830;42.290;-71.354;2024-02-04T09:53:11;5.55;;;2.80;;
81378;SDS011;70830;42.290;-71.354;2024-02-04T09:55:45;5.80;;;4.70;;
81378;SDS011;70830;42.290;-71.354;2024-02-04T09:58:13;6.00;;;4.88;;
81378;SDS011;70830;42.290;-71.354;2024-02-04T10:00:39;4.45;;;4.05;;
81378;SDS011;70830;42.290;-71.354;2024-02-04T10:03:09;5.15;;;4.40;;
81378;SDS011;70830;42.290;-71.354;2024-02-04T10:05:35;5.30;;;4.30;;
81378;SDS011;70830;42.290;-71.354;2024-02-04T10:08:01;5.40;;;4.90;;
81378;SDS011;70830;42.290;-71.354;2024-02-04T10:10:27;4.63;;;4.20;;
81378;SDS011;70830;42.290;-71.354;2024-02-04T10:12:55;5.15;;;4.63;;
81378;SDS011;70830;42.290;-71.354;2024-02-04T10:15:21;4.25;;;3.88;;
81378;SDS011;70830;42.290;-71.354;2024-02-04T10:17:47;4.60;;;4.20;;
81378;SDS011;70830;42.290;-71.354;2024-02-04T10:20:13;4.70;;;4.30;;
81378;SDS011;70830;42.290;-71.354;2024-02-04T10:22:40;5.25;;;4.10;;
81378;SDS011;70830;42.290;-71.354;2024-02-04T10:25:09;4.93;;;4.43;;
81378;SDS011;70830;42.290;-71.354;2024-02-04T10:30:05;4.45;;;3.90;;
81378;SDS011;70830;42.290;-71.354;2024-02-04T10:32:31;5.88;;;4.43;;
81378;SDS011;70830;42.290;-71.354;2024-02-04T10:35:00;5.10;;;4.60;;
81378;SDS011;70830;42.290;-71.354;2024-02-04T10:37:27;5.30;;;4.63;;
81378;SDS011;70830;42.290;-71.354;2024-02-04T10:39:53;6.97;;;4.35;;
81378;SDS011;70830;42.290;-71.354;2024-02-04T10:42:21;4.60;;;2.55;;
81378;SDS011;70830;42.290;-71.354;2024-02-04T10:44:53;4.10;;;2.45;;
81378;SDS011;70830;42.290;-71.354;2024-02-04T10:47:23;4.75;;;2.78;;
81378;SDS011;70830;42.290;-71.354;2024-02-04T10:49:55;4.85;;;2.67;;
81378;SDS011;70830;42.290;-71.354;2024-02-04T10:52:26;3.45;;;3.15;;
81378;SDS011;70830;42.290;-71.354;2024-02-04T10:54:53;5.30;;;2.40;;
81378;SDS011;70830;42.290;-71.354;2024-02-04T10:57:22;6.90;;;3.10;;
81378;SDS011;70830;42.290;-71.354;2024-02-04T10:59:48;3.40;;;2.40;;
81378;SDS011;70830;42.290;-71.354;2024-02-04T11:02:17;11.88;;;5.32;;
81378;SDS011;70830;42.290;-71.354;2024-02-04T11:04:45;3.85;;;2.10;;
81378;SDS011;70830;42.290;-71.354;2024-02-04T11:07:15;3.33;;;1.58;;
81378;SDS011;70830;42.290;-71.354;2024-02-04T11:09:42;4.30;;;1.92;;
81378;SDS011;70830;42.290;-71.354;2024-02-04T11:12:14;4.70;;;3.30;;
81378;SDS011;70830;42.290;-71.354;2024-02-04T11:14:44;6.68;;;4.53;;
81378;SDS011;70830;42.290;-71.354;2024-02-04T11:20:01;4.57;;;3.50;;
81378;SDS011;70830;42.290;-71.354;2024-02-04T11:27:56;5.00;;;3.80;;
81378;SDS011;70830;42.290;-71.354;2024-02-04T11:30:22;4.35;;;3.95;;
81378;SDS011;70830;42.290;-71.354;2024-02-04T11:32:48;4.68;;;3.60;;
81378;SDS011;70830;42.290;-71.354;2024-02-04T11:35:16;8.57;;;4.03;;
81378;SDS011;70830;42.290;-71.354;2024-02-04T11:37:42;7.38;;;4.13;;
81378;SDS011;70830;42.290;-71.354;2024-02-04T11:40:20;4.75;;;3.92;;
81378;SDS011;70830;42.290;-71.354;2024-02-04T11:42:49;5.20;;;3.70;;
81378;SDS011;70830;42.290;-71.354;2024-02-04T11:45:15;5.85;;;3.65;;
81378;SDS011;70830;42.290;-71.354;2024-02-04T11:47:41;3.97;;;3.53;;
81378;SDS011;70830;42.290;-71.354;2024-02-04T11:50:08;6.00;;;3.47;;
81378;SDS011;70830;42.290;-71.354;2024-02-04T11:52:35;6.38;;;4.10;;
81378;SDS011;70830;42.290;-71.354;2024-02-04T11:55:01;4.68;;;3.90;;
81378;SDS011;70830;42.290;-71.354;2024-02-04T11:57:29;4.05;;;3.53;;
81378;SDS011;70830;42.290;-71.354;2024-02-04T11:59:57;1.95;;;1.30;;
81378;SDS011;70830;42.290;-71.354;2024-02-04T12:02:23;3.75;;;1.70;;
81378;SDS011;70830;42.290;-71.354;2024-02-04T12:04:49;4.32;;;1.90;;
81378;SDS011;70830;42.290;-71.354;2024-02-04T12:07:16;4.97;;;1.88;;
81378;SDS011;70830;42.290;-71.354;2024-02-04T12:09:43;5.78;;;1.80;;
81378;SDS011;70830;42.290;-71.354;2024-02-04T12:12:09;5.88;;;2.00;;
81378;SDS011;70830;42.290;-71.354;2024-02-04T12:14:36;3.40;;;1.52;;
81378;SDS011;70830;42.290;-71.354;2024-02-04T12:17:08;3.70;;;1.77;;
81378;SDS011;70830;42.290;-71.354;2024-02-04T12:19:35;5.05;;;1.30;;
81378;SDS011;70830;42.290;-71.354;2024-02-04T12:22:02;3.60;;;1.77;;
81378;SDS011;70830;42.290;-71.354;2024-02-04T12:24:34;5.32;;;2.63;;
81378;SDS011;70830;42.290;-71.354;2024-02-04T12:27:02;2.63;;;2.08;;
81378;SDS011;70830;42.290;-71.354;2024-02-04T12:29:29;4.97;;;3.60;;
81378;SDS011;70830;42.290;-71.354;2024-02-04T12:31:59;3.42;;;2.05;;
81378;SDS011;70830;42.290;-71.354;2024-02-04T12:34:25;3.47;;;1.30;;
81378;SDS011;70830;42.290;-71.354;2024-02-04T12:36:58;1.75;;;1.17;;
81378;SDS011;70830;42.290;-71.354;2024-02-04T12:39:28;4.35;;;3.90;;
81378;SDS011;70830;42.290;-71.354;2024-02-04T12:41:54;3.90;;;3.60;;
81378;SDS011;70830;42.290;-71.354;2024-02-04T12:44:20;4.10;;;3.75;;
81378;SDS011;70830;42.290;-71.354;2024-02-04T12:46:49;8.65;;;4.13;;
81378;SDS011;70830;42.290;-71.354;2024-02-04T12:49:20;4.35;;;3.95;;
81378;SDS011;70830;42.290;-71.354;2024-02-04T12:51:50;2.90;;;2.30;;
81378;SDS011;70830;42.290;-71.354;2024-02-04T12:54:21;6.30;;;4.18;;
81378;SDS011;70830;42.290;-71.354;2024-02-04T12:56:47;4.57;;;4.18;;
81378;SDS011;70830;42.290;-71.354;2024-02-04T12:59:26;4.25;;;3.90;;
81378;SDS011;70830;42.290;-71.354;2024-02-04T13:02:00;5.57;;;3.87;;
81378;SDS011;70830;42.290;-71.354;2024-02-04T13:04:33;6.22;;;4.60;;
81378;SDS011;70830;42.290;-71.354;2024-02-04T13:07:00;5.25;;;4.60;;
81378;SDS011;70830;42.290;-71.354;2024-02-04T13:09:26;4.95;;;4.55;;
81378;SDS011;70830;42.290;-71.354;2024-02-04T13:11:52;5.38;;;4.88;;
81378;SDS011;70830;42.290;-71.354;2024-02-04T13:14:28;5.30;;;4.90;;
81378;SDS011;70830;42.290;-71.354;2024-02-04T13:16:54;5.90;;;4.80;;
81378;SDS011;70830;42.290;-71.354;2024-02-04T13:19:20;5.18;;;4.70;;
81378;SDS011;70830;42.290;-71.354;2024-02-04T13:21:46;5.07;;;4.57;;
81378;SDS011;70830;42.290;-71.354;2024-02-04T13:24:12;5.57;;;5.18;;
81378;SDS011;70830;42.290;-71.354;2024-02-04T13:26:38;5.63;;;5.13;;
81378;SDS011;70830;42.290;-71.354;2024-02-04T13:29:04;5.13;;;4.70;;
81378;SDS011;70830;42.290;-71.354;2024-02-04T13:31:30;5.53;;;4.90;;
81378;SDS011;70830;42.290;-71.354;2024-02-04T13:33:56;5.10;;;4.80;;
81378;SDS011;70830;42.290;-71.354;2024-02-04T13:36:23;5.70;;;5.30;;
81378;SDS011;70830;42.290;-71.354;2024-02-04T13:38:49;5.53;;;5.13;;
81378;SDS011;70830;42.290;-71.354;2024-02-04T13:41:15;5.55;;;5.05;;
81378;SDS011;70830;42.290;-71.354;2024-02-04T13:43:41;5.70;;;5.20;;
81378;SDS011;70830;42.290;-71.354;2024-02-04T13:46:09;5.60;;;5.10;;
81378;SDS011;70830;42.290;-71.354;2024-02-04T13:48:35;6.38;;;5.78;;
81378;SDS011;70830;42.290;-71.354;2024-02-04T13:51:00;5.93;;;5.32;;
81378;SDS011;70830;42.290;-71.354;2024-02-04T13:53:26;6.35;;;5.30;;
81378;SDS011;70830;42.290;-71.354;2024-02-04T13:55:52;6.07;;;5.57;;
81378;SDS011;70830;42.290;-71.354;2024-02-04T13:58:18;6.45;;;5.85;;
81378;SDS011;70830;42.290;-71.354;2024-02-04T14:00:44;6.50;;;6.00;;
81378;SDS011;70830;42.290;-71.354;2024-02-04T14:03:10;6.20;;;5.80;;
81378;SDS011;70830;42.290;-71.354;2024-02-04T14:05:38;6.95;;;6.35;;
81378;SDS011;70830;42.290;-71.354;2024-02-04T14:08:05;6.15;;;5.75;;
81378;SDS011;70830;42.290;-71.354;2024-02-04T14:10:32;6.30;;;5.90;;
81378;SDS011;70830;42.290;-71.354;2024-02-04T14:12:57;6.32;;;5.93;;
81378;SDS011;70830;42.290;-71.354;2024-02-04T14:15:23;6.20;;;5.80;;
81378;SDS011;70830;42.290;-71.354;2024-02-04T14:17:49;6.75;;;6.25;;
81378;SDS011;70830;42.290;-71.354;2024-02-04T14:20:15;6.63;;;6.13;;
81378;SDS011;70830;42.290;-71.354;2024-02-04T14:22:42;6.78;;;6.38;;
81378;SDS011;70830;42.290;-71.354;2024-02-04T14:25:08;6.75;;;6.20;;
81378;SDS011;70830;42.290;-71.354;2024-02-04T14:27:34;6.63;;;6.13;;
81378;SDS011;70830;42.290;-71.354;2024-02-04T14:30:02;6.95;;;6.55;;
81378;SDS011;70830;42.290;-71.354;2024-02-04T14:32:28;7.00;;;6.50;;
81378;SDS011;70830;42.290;-71.354;2024-02-04T14:34:54;6.68;;;6.28;;